createdAt,value
2019-01-29T00:01:46.768Z,96226.22
2019-01-29T00:06:51.400Z,96222.09
2019-01-29T00:11:56.157Z,96222.78
2019-01-29T00:17:00.790Z,96225.25
2019-01-29T00:22:05.540Z,96224.72
2019-01-29T00:27:10.378Z,96228.80
2019-01-29T00:32:14.934Z,96229.65
2019-01-29T00:37:19.660Z,96232.50
2019-01-29T00:42:24.192Z,96254.49
2019-01-29T00:47:28.825Z,96239.06
2019-01-29T00:52:41.669Z,96241.09
2019-01-29T00:57:39.757Z,96237.22
2019-01-29T01:02:44.316Z,96243.20
2019-01-29T01:07:49.043Z,96256.60
2019-01-29T01:12:53.681Z,96254.84
2019-01-29T01:17:58.422Z,96249.99
2019-01-29T01:23:03.053Z,96236.47
2019-01-29T01:28:07.910Z,96234.43
2019-01-29T01:33:12.546Z,96243.82
2019-01-29T01:38:17.802Z,96248.81
2019-01-29T01:43:22.443Z,96261.05
2019-01-29T01:48:27.188Z,96257.28
2019-01-29T01:53:31.828Z,96248.74
2019-01-29T01:58:36.455Z,96242.91
2019-01-29T02:03:41.104Z,96243.94
2019-01-29T02:08:45.849Z,96244.90
2019-01-29T02:13:50.628Z,96242.94
2019-01-29T02:18:55.290Z,96238.06
2019-01-29T02:23:59.966Z,96242.11
2019-01-29T02:29:04.722Z,96240.20
2019-01-29T02:34:10.385Z,96244.71
2019-01-29T02:39:15.024Z,96250.19
2019-01-29T02:44:19.666Z,96246.92
2019-01-29T02:49:24.508Z,96248.52
2019-01-29T02:54:29.150Z,96242.74
2019-01-29T02:59:33.787Z,96252.83
2019-01-29T03:04:38.426Z,96240.75
2019-01-29T03:09:43.059Z,96244.95
2019-01-29T03:14:47.811Z,96244.87
2019-01-29T03:19:52.555Z,96231.17
2019-01-29T03:24:57.083Z,96208.64
2019-01-29T03:30:01.838Z,96217.31
2019-01-29T03:35:07.804Z,96205.11
2019-01-29T03:40:15.228Z,96207.00
2019-01-29T03:45:20.062Z,96205.92
2019-01-29T03:50:24.801Z,96224.82
2019-01-29T03:55:29.546Z,96239.10
2019-01-29T04:00:34.437Z,96254.92
2019-01-29T04:05:39.131Z,96255.97
2019-01-29T04:10:43.872Z,96253.84
2019-01-29T04:15:48.823Z,96253.83
2019-01-29T04:20:53.667Z,96250.41
2019-01-29T04:25:58.449Z,96246.16
2019-01-29T04:31:03.148Z,96252.52
2019-01-29T04:36:07.893Z,96244.95
2019-01-29T04:41:12.534Z,96252.69
2019-01-29T04:46:17.179Z,96240.92
2019-01-29T04:51:21.872Z,96254.42
2019-01-29T04:56:26.660Z,96255.94
2019-01-29T05:01:33.146Z,96263.63
2019-01-29T05:06:37.841Z,96261.66
2019-01-29T05:11:42.628Z,96267.80
2019-01-29T05:16:47.371Z,96268.78
2019-01-29T05:21:52.115Z,96271.80
2019-01-29T05:26:56.961Z,96279.22
2019-01-29T05:32:01.707Z,96292.66
2019-01-29T05:37:06.552Z,96299.16
2019-01-29T05:42:11.296Z,96293.72
2019-01-29T05:47:15.908Z,96291.95
2019-01-29T05:52:20.577Z,96285.94
2019-01-29T05:57:25.167Z,96280.44
2019-01-29T06:02:29.849Z,96271.30
2019-01-29T06:07:34.499Z,96272.03
2019-01-29T06:12:39.343Z,96258.23
2019-01-29T06:17:44.082Z,96269.27
2019-01-29T06:22:48.736Z,96279.93
2019-01-29T06:27:53.463Z,96285.77
2019-01-29T06:32:58.261Z,96303.48
2019-01-29T06:38:03.050Z,96318.86
2019-01-29T06:43:07.794Z,96323.73
2019-01-29T06:48:12.543Z,96321.98
2019-01-29T06:53:17.113Z,96326.80
2019-01-29T06:58:21.921Z,96335.12
2019-01-29T07:03:26.663Z,96334.92
2019-01-29T07:08:31.405Z,96319.02
2019-01-29T07:13:36.043Z,96327.98
2019-01-29T07:18:48.364Z,96332.23
2019-01-29T07:23:53.108Z,96333.63
2019-01-29T07:28:57.789Z,96332.08
2019-01-29T07:34:02.387Z,96341.86
2019-01-29T07:39:09.384Z,96336.02
2019-01-29T07:44:14.039Z,96341.25
2019-01-29T07:49:18.766Z,96340.86
2019-01-29T07:54:23.510Z,96340.75
2019-01-29T07:59:33.275Z,96340.50
2019-01-29T08:04:35.657Z,96342.37
2019-01-29T08:09:40.402Z,96338.48
2019-01-29T08:14:45.044Z,96343.91
2019-01-29T08:19:49.785Z,96326.22
2019-01-29T08:25:01.937Z,96341.82
2019-01-29T08:30:03.341Z,96352.19
2019-01-29T08:35:11.390Z,96356.73
2019-01-29T08:40:16.933Z,96354.00
2019-01-29T08:45:21.689Z,96362.42
2019-01-29T08:50:27.482Z,96357.16
2019-01-29T08:55:32.090Z,96358.63
2019-01-29T09:00:36.838Z,96375.59
2019-01-29T09:05:41.452Z,96401.81
2019-01-29T09:10:46.222Z,96411.08
2019-01-29T09:15:50.966Z,96427.25
2019-01-29T09:20:55.711Z,96431.09
2019-01-29T09:26:00.456Z,96431.03
2019-01-29T09:31:05.299Z,96434.14
2019-01-29T09:36:10.023Z,96440.16
2019-01-29T09:41:14.803Z,96449.67
2019-01-29T09:46:19.654Z,96442.68
2019-01-29T09:51:24.372Z,96437.05
2019-01-29T09:56:29.010Z,96433.52
2019-01-29T10:01:33.650Z,96426.90
2019-01-29T10:06:38.394Z,96433.19
2019-01-29T10:11:43.139Z,96424.59
2019-01-29T10:16:48.007Z,96420.47
2019-01-29T10:21:52.725Z,96404.58
2019-01-29T10:26:57.466Z,96395.44
2019-01-29T10:32:02.313Z,96392.70
2019-01-29T10:37:06.944Z,96386.80
2019-01-29T10:42:11.694Z,96389.84
2019-01-29T10:47:16.438Z,96392.11
2019-01-29T10:52:21.180Z,96385.38
2019-01-29T10:57:25.923Z,96379.70
2019-01-29T11:02:30.668Z,96370.39
2019-01-29T11:07:35.693Z,96370.77
2019-01-29T11:12:40.564Z,96368.48
2019-01-29T11:17:45.463Z,96359.38
2019-01-29T11:22:50.355Z,96362.00
2019-01-29T11:27:55.214Z,96360.41
2019-01-29T11:32:59.945Z,96356.47
2019-01-29T11:38:04.683Z,96354.36
2019-01-29T11:43:09.327Z,96352.48
2019-01-29T11:48:14.068Z,96355.34
2019-01-29T11:53:18.709Z,96348.49
2019-01-29T11:58:23.456Z,96348.96
2019-01-29T12:03:28.194Z,96349.61
2019-01-29T12:08:33.034Z,96354.50
2019-01-29T12:13:37.991Z,96354.08
2019-01-29T12:18:42.731Z,96361.27
2019-01-29T12:23:47.474Z,96374.31
2019-01-29T12:28:52.222Z,96382.36
2019-01-29T12:33:57.024Z,96391.14
2019-01-29T12:39:01.811Z,96393.36
2019-01-29T12:44:08.188Z,96397.56
2019-01-29T12:49:14.058Z,96407.66
2019-01-29T12:54:18.802Z,96414.45
2019-01-29T12:59:23.544Z,96419.13
2019-01-29T13:04:29.909Z,96420.71
2019-01-29T13:09:35.296Z,96416.64
2019-01-29T13:14:40.517Z,96418.56
2019-01-29T13:19:45.487Z,96421.11
2019-01-29T13:24:50.331Z,96433.87
2019-01-29T13:29:55.074Z,96440.84
2019-01-29T13:34:59.815Z,96430.84
2019-01-29T13:40:10.495Z,96446.80
2019-01-29T13:45:16.989Z,96454.63
2019-01-29T13:50:27.560Z,96463.63
2019-01-29T13:55:33.434Z,96463.41
2019-01-29T14:00:39.605Z,96456.48
2019-01-29T14:05:44.250Z,96454.83
2019-01-29T14:10:48.992Z,96465.88
2019-01-29T14:15:54.650Z,96474.65
2019-01-29T14:20:59.600Z,96477.63
2019-01-29T14:26:04.349Z,96481.13
2019-01-29T14:31:09.397Z,96477.85
2019-01-29T14:36:16.886Z,96479.78
2019-01-29T14:41:20.520Z,96475.78
2019-01-29T14:46:25.259Z,96487.02
2019-01-29T14:51:30.104Z,96477.48
2019-01-29T14:56:34.948Z,96482.78
2019-01-29T15:01:39.585Z,96475.05
2019-01-29T15:06:44.337Z,96479.09
2019-01-29T15:11:48.988Z,96469.50
2019-01-29T15:16:55.252Z,96479.27
2019-01-29T15:21:59.889Z,96474.36
2019-01-29T15:27:05.731Z,96478.20
2019-01-29T15:32:10.711Z,96486.72
2019-01-29T15:37:15.457Z,96488.88
2019-01-29T15:42:20.212Z,96487.19
2019-01-29T15:47:25.301Z,96476.23
2019-01-29T15:52:30.205Z,96483.80
2019-01-29T15:57:35.421Z,96489.70
2019-01-29T16:02:41.934Z,96484.60
2019-01-29T16:07:49.186Z,96492.89
2019-01-29T16:12:54.185Z,96490.66
2019-01-29T16:17:58.945Z,96483.58
2019-01-29T16:23:04.038Z,96475.95
2019-01-29T16:28:09.347Z,96470.72
2019-01-29T16:33:14.290Z,96486.13
2019-01-29T16:38:18.926Z,96488.70
2019-01-29T16:43:23.634Z,96482.91
2019-01-29T16:48:28.525Z,96472.45
2019-01-29T16:53:34.594Z,96479.67
2019-01-29T16:58:39.941Z,96485.96
2019-01-29T17:03:44.685Z,96480.10
2019-01-29T17:08:49.432Z,96482.58
2019-01-29T17:13:54.476Z,96473.52
2019-01-29T17:18:59.118Z,96480.30
2019-01-29T17:24:03.862Z,96477.44
2019-01-29T17:29:08.619Z,96476.53
2019-01-29T17:34:13.448Z,96470.02
2019-01-29T17:39:18.047Z,96467.20
2019-01-29T17:44:22.836Z,96468.27
2019-01-29T17:49:27.584Z,96474.02
2019-01-29T17:54:32.214Z,96462.45
2019-01-29T17:59:37.396Z,96464.97
2019-01-29T18:04:42.625Z,96461.84
2019-01-29T18:09:47.546Z,96461.30
2019-01-29T18:14:52.932Z,96457.80
2019-01-29T18:19:57.773Z,96452.37
2019-01-29T18:25:06.000Z,96448.30
2019-01-29T18:30:20.382Z,96445.76
2019-01-29T18:35:27.075Z,96446.58
2019-01-29T18:40:38.258Z,96425.17
2019-01-29T18:45:42.992Z,96421.19
2019-01-29T18:50:47.714Z,96429.80
2019-01-29T18:55:53.297Z,96417.90
2019-01-29T19:00:58.041Z,96414.73
2019-01-29T19:06:02.887Z,96423.99
2019-01-29T19:11:07.929Z,96418.03
2019-01-29T19:16:12.880Z,96409.70
2019-01-29T19:21:17.730Z,96407.50
2019-01-29T19:26:23.604Z,96411.84
2019-01-29T19:31:28.232Z,96402.70
2019-01-29T19:36:33.070Z,96395.87
2019-01-29T19:41:38.861Z,96400.19
2019-01-29T19:46:43.731Z,96395.48
2019-01-29T19:51:49.131Z,96387.11
2019-01-29T19:56:54.207Z,96384.59
2019-01-29T20:01:58.944Z,96382.58
2019-01-29T20:07:04.301Z,96379.19
2019-01-29T20:12:10.593Z,96380.34
2019-01-29T20:17:17.603Z,96374.27
2019-01-29T20:22:21.702Z,96368.61
2019-01-29T20:27:26.476Z,96366.80
2019-01-29T20:32:31.248Z,96357.95
2019-01-29T20:37:36.139Z,96349.73
2019-01-29T20:42:40.985Z,96355.16
2019-01-29T20:47:45.832Z,96351.59
2019-01-29T20:52:50.573Z,96348.52
2019-01-29T20:57:55.316Z,96345.13
2019-01-29T21:02:59.975Z,96344.70
2019-01-29T21:08:04.903Z,96349.42
2019-01-29T21:13:11.015Z,96345.39
2019-01-29T21:18:15.926Z,96347.45
2019-01-29T21:23:20.668Z,96342.13
2019-01-29T21:28:25.213Z,96331.98
2019-01-29T21:33:30.054Z,96327.34
2019-01-29T21:38:34.612Z,96331.19
2019-01-29T21:43:39.860Z,96322.38
2019-01-29T21:48:44.689Z,96328.06
2019-01-29T21:53:49.430Z,96326.61
2019-01-29T21:58:54.304Z,96322.46
2019-01-29T22:03:59.025Z,96322.51
2019-01-29T22:09:03.868Z,96321.82
2019-01-29T22:14:10.247Z,96311.77
2019-01-29T22:19:14.894Z,96315.22
2019-01-29T22:24:19.732Z,96311.89
2019-01-29T22:29:24.478Z,96305.59
2019-01-29T22:34:29.319Z,96293.66
2019-01-29T22:39:34.061Z,96290.77
2019-01-29T22:44:38.805Z,96289.23
2019-01-29T22:49:43.550Z,96288.09
2019-01-29T22:54:48.261Z,96298.33
2019-01-29T22:59:53.032Z,96286.12
2019-01-29T23:04:57.878Z,96283.36
2019-01-29T23:10:02.721Z,96274.92
2019-01-29T23:15:10.546Z,96278.98
2019-01-29T23:20:18.764Z,96270.53
2019-01-29T23:25:23.506Z,96273.04
2019-01-29T23:30:28.249Z,96252.66
2019-01-29T23:35:33.279Z,96248.79
2019-01-29T23:40:38.162Z,96246.41
2019-01-29T23:45:42.885Z,96240.66
2019-01-29T23:50:48.595Z,96231.34
2019-01-29T23:55:53.393Z,96226.65
